Time;durP1;ratioP1;P1;durP2;ratioP2;P2;SDS_P1;SDS_P2;PMS_P1;PMS_P2;Temp;Humidity;BMP_temperature;BMP_pressure;BME280_temperature;BME280_humidity;BME280_pressure;Samples;Min_cycle;Max_cycle;Signal;HPM_P1;HPM_P2
2023/03/27 00:00:55;;;;;;;1.10;0.50;;;11.60;99.90;;;;;;5033286;28;20057;-39
2023/03/27 00:03:22;;;;;;;0.80;0.45;;;11.60;99.90;;;;;;5034394;28;20048;-36
2023/03/27 00:05:47;;;;;;;0.60;0.38;;;11.60;99.90;;;;;;5032932;28;20029;-45
2023/03/27 00:08:13;;;;;;;0.52;0.40;;;11.60;99.90;;;;;;5034214;28;20026;-37
2023/03/27 00:10:39;;;;;;;0.82;0.40;;;11.60;99.90;;;;;;5032356;28;20438;-36
2023/03/27 00:13:07;;;;;;;0.73;0.35;;;11.60;99.90;;;;;;5031981;28;20021;-38
2023/03/27 00:15:33;;;;;;;0.38;0.32;;;11.50;99.90;;;;;;5031821;28;20060;-36
2023/03/27 00:18:02;;;;;;;1.92;0.50;;;11.50;99.90;;;;;;5031277;28;20022;-37
2023/03/27 00:20:30;;;;;;;0.50;0.40;;;11.50;99.90;;;;;;5031775;28;20025;-39
2023/03/27 00:22:56;;;;;;;2.35;0.50;;;11.50;99.90;;;;;;5032609;28;20026;-39
2023/03/27 00:25:25;;;;;;;0.75;0.50;;;11.50;99.90;;;;;;5032857;28;20049;-35
2023/03/27 00:27:52;;;;;;;0.55;0.30;;;11.50;99.90;;;;;;5031538;28;20057;-36
2023/03/27 00:30:19;;;;;;;0.75;0.47;;;11.50;99.90;;;;;;5032525;28;20589;-37
2023/03/27 00:32:45;;;;;;;0.43;0.30;;;11.50;99.90;;;;;;5032609;28;20112;-37
2023/03/27 00:35:13;;;;;;;0.82;0.38;;;11.50;99.90;;;;;;5033222;28;20037;-38
2023/03/27 00:37:39;;;;;;;1.17;0.50;;;11.50;99.90;;;;;;5031916;28;20140;-36
2023/03/27 00:40:06;;;;;;;0.57;0.30;;;11.50;99.90;;;;;;5033088;28;20043;-37
2023/03/27 00:42:33;;;;;;;0.77;0.50;;;11.50;99.90;;;;;;5033214;28;20021;-37
2023/03/27 00:45:00;;;;;;;0.40;0.20;;;11.50;99.90;;;;;;5032106;28;20400;-37
2023/03/27 00:47:32;;;;;;;2.58;0.40;;;11.50;99.90;;;;;;5031229;28;20033;-39
2023/03/27 00:50:00;;;;;;;0.55;0.50;;;11.50;99.90;;;;;;5032053;28;20013;-37
2023/03/27 00:52:28;;;;;;;0.80;0.40;;;11.50;99.90;;;;;;5031464;28;20017;-39
2023/03/27 00:54:57;;;;;;;0.80;0.20;;;11.50;99.90;;;;;;5031247;28;20400;-38
2023/03/27 00:57:24;;;;;;;0.68;0.47;;;11.50;99.90;;;;;;5030739;28;20049;-37
2023/03/27 00:59:52;;;;;;;1.10;0.50;;;11.50;99.90;;;;;;5032138;28;20364;-37
2023/03/27 01:02:18;;;;;;;0.50;0.30;;;11.50;99.90;;;;;;5031484;28;20029;-38
2023/03/27 01:04:45;;;;;;;0.52;0.30;;;11.50;99.90;;;;;;5031940;28;20029;-36
2023/03/27 01:07:14;;;;;;;0.50;0.28;;;11.50;99.90;;;;;;5031480;28;20491;-36
2023/03/27 01:09:39;;;;;;;0.63;0.40;;;11.50;99.90;;;;;;5032476;28;20037;-39
2023/03/27 01:12:28;;;;;;;0.52;0.40;;;11.50;99.90;;;;;;5033140;28;20044;-36
2023/03/27 01:15:18;;;;;;;0.70;0.30;;;11.50;99.90;;;;;;5022727;28;20472;-36
2023/03/27 01:18:02;;;;;;;0.30;0.30;;;11.50;99.90;;;;;;5030931;28;20021;-36
2023/03/27 01:20:52;;;;;;;1.48;0.40;;;11.40;99.90;;;;;;5032670;28;20021;-35
2023/03/27 01:23:42;;;;;;;0.52;0.30;;;11.40;99.90;;;;;;5033872;28;20018;-38
2023/03/27 01:26:36;;;;;;;0.20;0.20;;;11.40;99.90;;;;;;5031091;28;20394;-36
2023/03/27 01:29:05;;;;;;;0.43;0.40;;;11.40;99.90;;;;;;5032043;28;20075;-37
2023/03/27 01:32:21;;;;;;;0.60;0.32;;;11.40;99.90;;;;;;5032169;28;20021;-36
2023/03/27 01:35:11;;;;;;;1.10;0.40;;;11.40;99.90;;;;;;5022279;28;20116;-37
2023/03/27 01:38:05;;;;;;;0.80;0.30;;;11.40;99.90;;;;;;5030727;28;20108;-37
2023/03/27 01:40:50;;;;;;;0.85;0.30;;;11.40;99.90;;;;;;5033180;28;20021;-36
2023/03/27 01:43:33;;;;;;;0.40;0.38;;;11.40;99.90;;;;;;5032163;28;20041;-36
2023/03/27 01:46:07;;;;;;;0.43;0.30;;;11.40;99.90;;;;;;5030279;28;20045;-38
2023/03/27 01:48:42;;;;;;;0.73;0.43;;;11.30;99.90;;;;;;5032724;28;20030;-36
2023/03/27 01:51:17;;;;;;;1.20;0.60;;;11.30;99.90;;;;;;5034950;28;20034;-38
2023/03/27 01:53:57;;;;;;;1.35;0.68;;;11.40;99.90;;;;;;5036167;28;20053;-38
2023/03/27 01:56:36;;;;;;;1.00;0.50;;;11.30;99.90;;;;;;5035289;28;20665;-41
2023/03/27 01:59:15;;;;;;;0.80;0.52;;;11.40;99.90;;;;;;5034780;28;20036;-36
2023/03/27 02:01:47;;;;;;;1.30;0.70;;;11.40;99.90;;;;;;5035869;28;20044;-38
2023/03/27 02:04:19;;;;;;;1.63;0.73;;;11.40;99.90;;;;;;5036185;28;20022;-37
2023/03/27 02:06:50;;;;;;;1.67;0.85;;;11.70;99.90;;;;;;5033913;28;20030;-38
2023/03/27 02:09:48;;;;;;;2.03;0.90;;;11.90;99.90;;;;;;5036258;28;20274;-36
2023/03/27 02:12:18;;;;;;;1.88;0.90;;;11.90;99.90;;;;;;5033954;28;20041;-37
2023/03/27 02:14:54;;;;;;;2.55;0.90;;;11.90;99.90;;;;;;5035062;28;20029;-36
2023/03/27 02:17:25;;;;;;;1.65;0.85;;;11.90;99.90;;;;;;5033956;28;20029;-37
2023/03/27 02:19:59;;;;;;;2.40;1.00;;;11.80;99.90;;;;;;5036552;28;20056;-34
2023/03/27 02:22:27;;;;;;;1.77;1.13;;;11.70;99.90;;;;;;5035935;28;20032;-41
2023/03/27 02:24:53;;;;;;;2.42;0.90;;;11.70;99.90;;;;;;5035364;28;20043;-39
2023/03/27 02:27:39;;;;;;;2.63;1.05;;;11.70;99.90;;;;;;5035699;28;20044;-39
2023/03/27 02:30:24;;;;;;;1.70;1.13;;;11.70;99.90;;;;;;5034811;28;20407;-37
2023/03/27 02:33:14;;;;;;;2.78;1.10;;;11.70;99.90;;;;;;5035793;28;20041;-35
2023/03/27 02:35:43;;;;;;;2.67;1.02;;;11.60;99.90;;;;;;5034732;28;20036;-37
2023/03/27 02:38:17;;;;;;;3.45;1.00;;;11.60;99.90;;;;;;5034562;28;20025;-36
2023/03/27 02:41:23;;;;;;;3.10;1.20;;;11.60;99.90;;;;;;5034722;28;20097;-38
2023/03/27 02:43:59;;;;;;;3.25;1.08;;;11.60;99.90;;;;;;5035253;28;20021;-36
2023/03/27 02:46:40;;;;;;;3.88;0.93;;;11.50;99.90;;;;;;5035234;28;20026;-38
2023/03/27 02:49:13;;;;;;;3.38;1.10;;;11.50;99.90;;;;;;5034173;28;20029;-37
2023/03/27 02:51:56;;;;;;;4.45;1.23;;;11.50;99.90;;;;;;5035623;28;20088;-36
2023/03/27 02:54:28;;;;;;;3.05;1.30;;;11.50;99.90;;;;;;5034821;28;20029;-37
2023/03/27 02:56:57;;;;;;;4.70;1.10;;;11.50;99.90;;;;;;5033676;28;20018;-37
2023/03/27 02:59:34;;;;;;;2.83;1.13;;;11.40;99.90;;;;;;5034345;28;20424;-37
2023/03/27 03:02:08;;;;;;;3.10;1.30;;;11.40;99.90;;;;;;5033170;28;20068;-36
2023/03/27 03:04:45;;;;;;;3.88;1.10;;;11.40;99.90;;;;;;5033745;28;20108;-36
2023/03/27 03:07:12;;;;;;;4.22;1.20;;;11.40;99.90;;;;;;5033629;28;20040;-37
2023/03/27 03:09:40;;;;;;;4.65;1.38;;;11.40;99.90;;;;;;5035258;28;20099;-38
2023/03/27 03:12:06;;;;;;;4.40;1.23;;;11.30;99.90;;;;;;5034245;28;20029;-37
2023/03/27 03:14:35;;;;;;;3.45;1.40;;;11.30;99.90;;;;;;5035987;28;20391;-36
2023/03/27 03:17:01;;;;;;;4.47;1.33;;;11.40;99.90;;;;;;5033082;28;20091;-37
2023/03/27 03:19:27;;;;;;;3.03;1.40;;;11.50;99.90;;;;;;5033941;28;20479;-36
2023/03/27 03:21:53;;;;;;;2.67;0.90;;;11.50;99.90;;;;;;5033482;28;20033;-35
2023/03/27 03:24:20;;;;;;;2.97;1.58;;;11.50;99.90;;;;;;5033528;28;20369;-37
2023/03/27 03:26:49;;;;;;;4.40;1.15;;;11.50;99.90;;;;;;5033399;28;20439;-37
2023/03/27 03:29:15;;;;;;;3.58;1.33;;;11.50;99.90;;;;;;5032792;28;20143;-35
2023/03/27 03:31:44;;;;;;;2.88;1.00;;;11.50;99.90;;;;;;5034205;28;20033;-36
2023/03/27 03:34:15;;;;;;;3.85;1.10;;;11.50;99.90;;;;;;5033185;28;20024;-35
2023/03/27 03:36:43;;;;;;;5.97;1.20;;;11.50;99.90;;;;;;5032227;28;20084;-40
2023/03/27 03:39:11;;;;;;;4.38;1.27;;;11.50;99.90;;;;;;5033808;28;20030;-37
2023/03/27 03:41:36;;;;;;;5.20;1.30;;;11.40;99.90;;;;;;5034036;28;20049;-36
2023/03/27 03:44:02;;;;;;;4.28;1.27;;;11.40;99.90;;;;;;5033642;28;20041;-37
2023/03/27 03:46:28;;;;;;;3.70;1.08;;;11.40;99.90;;;;;;5033263;28;20510;-36
2023/03/27 03:48:54;;;;;;;2.22;0.90;;;11.40;99.90;;;;;;5034401;28;20033;-37
2023/03/27 03:51:19;;;;;;;3.60;1.20;;;11.40;99.90;;;;;;5034586;28;20036;-38
2023/03/27 03:53:45;;;;;;;4.28;1.60;;;11.40;99.90;;;;;;5033083;28;20029;-35
2023/03/27 03:56:11;;;;;;;4.35;0.93;;;11.40;99.90;;;;;;5032623;28;20032;-38
2023/03/27 03:58:36;;;;;;;4.95;1.38;;;11.40;99.90;;;;;;5033503;28;20025;-39
2023/03/27 04:01:02;;;;;;;8.25;1.20;;;11.30;99.90;;;;;;5033360;28;20029;-35
2023/03/27 04:03:31;;;;;;;3.03;1.10;;;11.30;99.90;;;;;;5034658;28;20025;-36
2023/03/27 04:05:59;;;;;;;4.00;1.02;;;11.30;99.90;;;;;;5033234;28;20087;-35
2023/03/27 04:08:26;;;;;;;4.55;1.30;;;11.30;99.90;;;;;;5032748;28;20043;-37
2023/03/27 04:10:52;;;;;;;2.83;1.00;;;11.30;99.90;;;;;;5034264;28;20553;-36
2023/03/27 04:13:17;;;;;;;3.58;0.85;;;11.50;99.90;;;;;;5032296;28;20041;-38
2023/03/27 04:15:43;;;;;;;4.07;1.23;;;11.70;99.90;;;;;;5034094;28;20029;-38
2023/03/27 04:18:09;;;;;;;6.10;1.33;;;11.70;99.90;;;;;;5033042;28;20498;-35
2023/03/27 04:20:35;;;;;;;4.32;1.50;;;11.70;99.90;;;;;;5033782;28;20383;-39
2023/03/27 04:23:01;;;;;;;7.68;1.50;;;11.60;99.90;;;;;;5033724;28;20021;-35
2023/03/27 04:25:28;;;;;;;7.38;1.23;;;11.60;99.90;;;;;;5032893;28;20072;-38
2023/03/27 04:27:55;;;;;;;3.85;1.17;;;11.50;99.90;;;;;;5031833;28;20029;-40
2023/03/27 04:30:23;;;;;;;5.10;1.30;;;11.50;99.90;;;;;;5034187;28;20025;-40
2023/03/27 04:32:53;;;;;;;5.15;1.40;;;11.50;99.90;;;;;;5033493;28;20033;-35
2023/03/27 04:35:19;;;;;;;5.78;1.27;;;11.40;99.90;;;;;;5032383;28;20031;-36
2023/03/27 04:37:46;;;;;;;2.92;0.98;;;11.40;99.90;;;;;;5031019;28;20038;-39
2023/03/27 04:40:14;;;;;;;6.40;1.00;;;11.40;99.90;;;;;;5033113;28;20025;-38
2023/03/27 04:42:42;;;;;;;5.20;1.25;;;11.40;99.90;;;;;;5032552;28;20032;-36
2023/03/27 04:45:21;;;;;;;5.80;1.25;;;11.40;99.90;;;;;;5032689;28;20014;-36
2023/03/27 04:47:47;;;;;;;3.70;1.30;;;11.30;99.90;;;;;;5032198;28;20029;-38
2023/03/27 04:50:14;;;;;;;4.13;1.30;;;11.30;99.90;;;;;;5033592;28;20064;-39
2023/03/27 04:52:41;;;;;;;4.57;0.93;;;11.30;99.90;;;;;;5032686;28;20025;-35
2023/03/27 04:55:07;;;;;;;3.17;1.20;;;11.30;99.90;;;;;;5032290;28;20411;-39
2023/03/27 04:57:33;;;;;;;6.25;1.45;;;11.30;99.90;;;;;;5032660;28;20017;-37
2023/03/27 05:00:00;;;;;;;4.18;1.10;;;11.20;99.90;;;;;;5032233;28;20022;-36
2023/03/27 05:02:26;;;;;;;4.95;1.20;;;11.20;99.90;;;;;;5032616;28;20040;-37
2023/03/27 05:05:03;;;;;;;4.45;1.30;;;11.20;99.90;;;;;;5032663;28;20383;-36
2023/03/27 05:07:29;;;;;;;7.93;1.42;;;11.20;99.90;;;;;;5031094;28;20486;-39
2023/03/27 05:09:56;;;;;;;4.55;1.38;;;11.20;99.90;;;;;;5032333;28;20104;-37
2023/03/27 05:12:22;;;;;;;4.47;1.20;;;11.10;99.90;;;;;;5032312;28;20032;-35
2023/03/27 05:14:47;;;;;;;7.80;1.35;;;11.30;99.90;;;;;;5032640;28;20029;-37
2023/03/27 05:17:15;;;;;;;8.75;1.67;;;11.50;99.90;;;;;;5031274;28;20040;-38
2023/03/27 05:19:41;;;;;;;5.00;1.10;;;11.60;99.90;;;;;;5031788;28;20391;-36
2023/03/27 05:22:06;;;;;;;5.30;1.40;;;11.60;99.90;;;;;;5031839;28;20017;-35
2023/03/27 05:24:32;;;;;;;4.22;1.20;;;11.50;99.90;;;;;;5035175;28;20055;-37
2023/03/27 05:26:58;;;;;;;5.65;1.35;;;11.50;99.90;;;;;;5038500;28;20031;-37
2023/03/27 05:29:24;;;;;;;7.90;1.40;;;11.40;99.90;;;;;;5038494;28;20069;-37
2023/03/27 05:31:50;;;;;;;3.58;1.02;;;11.40;99.90;;;;;;5040011;28;20025;-36
2023/03/27 05:34:18;;;;;;;3.75;1.17;;;11.30;99.90;;;;;;5038153;28;20040;-37
2023/03/27 05:36:44;;;;;;;9.35;1.40;;;11.30;99.90;;;;;;5039735;28;20033;-39
2023/03/27 05:39:09;;;;;;;4.47;1.13;;;11.30;99.90;;;;;;5039028;28;20025;-35
2023/03/27 05:41:35;;;;;;;4.72;1.50;;;11.20;99.90;;;;;;5038235;28;20029;-37
2023/03/27 05:44:02;;;;;;;5.47;1.00;;;11.20;99.90;;;;;;5037828;28;20021;-39
2023/03/27 05:46:28;;;;;;;3.10;1.15;;;11.20;99.90;;;;;;5038042;28;20033;-39
2023/03/27 05:48:54;;;;;;;4.10;1.10;;;11.20;99.90;;;;;;5038443;28;20021;-36
2023/03/27 05:51:19;;;;;;;4.82;1.15;;;11.20;99.90;;;;;;5037322;28;20025;-37
2023/03/27 05:53:45;;;;;;;5.15;2.03;;;11.20;99.90;;;;;;5038026;28;20027;-37
2023/03/27 05:56:12;;;;;;;8.32;1.42;;;11.20;99.90;;;;;;5037783;28;20053;-37
2023/03/27 05:58:38;;;;;;;8.35;1.40;;;11.20;99.90;;;;;;5037595;28;20108;-37
2023/03/27 06:01:04;;;;;;;5.63;1.25;;;11.10;99.90;;;;;;5038663;28;20119;-39
2023/03/27 06:03:30;;;;;;;5.18;1.33;;;11.10;99.90;;;;;;5038258;28;20032;-35
2023/03/27 06:05:58;;;;;;;5.30;1.40;;;11.10;99.90;;;;;;5037492;28;20022;-37
2023/03/27 06:08:25;;;;;;;6.78;1.30;;;11.10;99.90;;;;;;5038412;28;20467;-35
2023/03/27 06:10:51;;;;;;;7.60;1.42;;;11.10;99.90;;;;;;5039064;28;20041;-38
2023/03/27 06:13:17;;;;;;;6.78;1.48;;;11.10;99.90;;;;;;5037789;28;20156;-37
2023/03/27 06:15:43;;;;;;;3.80;1.20;;;11.10;99.90;;;;;;5038452;28;20700;-38
2023/03/27 06:18:09;;;;;;;12.48;1.67;;;11.10;99.90;;;;;;5036836;28;20036;-35
2023/03/27 06:20:38;;;;;;;4.45;1.40;;;11.00;99.90;;;;;;5039651;28;20471;-35
2023/03/27 06:23:05;;;;;;;5.32;1.25;;;11.00;99.90;;;;;;5035971;28;20021;-37
2023/03/27 06:25:33;;;;;;;6.95;1.50;;;11.00;99.90;;;;;;5038100;28;20078;-37
2023/03/27 06:28:00;;;;;;;6.18;1.50;;;11.00;99.90;;;;;;5038070;28;20029;-35
2023/03/27 06:30:29;;;;;;;5.80;1.60;;;11.00;99.90;;;;;;5038133;28;20026;-36
2023/03/27 06:32:57;;;;;;;8.40;1.70;;;11.00;99.90;;;;;;5039017;28;20452;-37
2023/03/27 06:35:24;;;;;;;5.55;1.38;;;11.00;99.90;;;;;;5037436;28;20112;-36
2023/03/27 06:37:50;;;;;;;7.32;1.45;;;11.00;99.90;;;;;;5032754;28;20485;-37
2023/03/27 06:40:24;;;;;;;8.70;1.70;;;11.00;99.90;;;;;;5034498;28;20105;-37
2023/03/27 06:42:54;;;;;;;5.45;1.80;;;10.90;99.90;;;;;;5034368;28;20025;-36
2023/03/27 06:45:22;;;;;;;6.18;1.63;;;10.90;99.90;;;;;;5036617;28;20416;-39
2023/03/27 06:47:53;;;;;;;7.50;1.88;;;10.90;99.90;;;;;;5033375;28;20041;-37
2023/03/27 06:50:19;;;;;;;8.77;1.50;;;10.90;99.90;;;;;;5033939;28;20033;-35
2023/03/27 06:52:47;;;;;;;5.45;1.23;;;10.90;99.90;;;;;;5035722;28;20414;-38
2023/03/27 06:55:14;;;;;;;5.22;1.50;;;10.90;99.90;;;;;;5034442;28;20024;-35
2023/03/27 06:57:47;;;;;;;7.30;1.58;;;10.90;99.90;;;;;;5033415;28;20376;-36
2023/03/27 07:00:23;;;;;;;7.13;1.30;;;10.90;99.90;;;;;;5033865;28;20083;-35
2023/03/27 07:02:59;;;;;;;8.23;1.63;;;10.90;99.90;;;;;;5034428;28;20029;-38
2023/03/27 07:05:27;;;;;;;6.03;1.60;;;10.90;99.90;;;;;;5033235;28;20037;-35
2023/03/27 07:07:53;;;;;;;5.70;1.35;;;10.90;99.90;;;;;;5032860;28;20029;-39
2023/03/27 07:10:20;;;;;;;5.93;1.27;;;10.90;99.90;;;;;;5034153;28;20388;-35
2023/03/27 07:12:50;;;;;;;7.07;1.52;;;10.80;99.90;;;;;;5033780;28;20022;-36
2023/03/27 07:15:17;;;;;;;6.60;1.60;;;10.80;99.90;;;;;;5033172;28;20036;-37
2023/03/27 07:17:43;;;;;;;5.78;1.50;;;10.80;99.90;;;;;;5032461;28;20029;-36
2023/03/27 07:20:12;;;;;;;8.80;1.65;;;10.80;99.90;;;;;;5033078;28;20383;-35
2023/03/27 07:22:41;;;;;;;4.20;1.35;;;10.80;99.90;;;;;;5033962;28;20021;-37
2023/03/27 07:25:08;;;;;;;10.02;1.80;;;10.80;99.90;;;;;;5033488;28;20028;-39
2023/03/27 07:27:33;;;;;;;7.05;1.83;;;10.80;99.90;;;;;;5032772;28;20049;-39
2023/03/27 07:30:00;;;;;;;4.95;1.25;;;10.80;99.90;;;;;;5033696;28;20036;-38
2023/03/27 07:32:28;;;;;;;4.68;1.38;;;10.80;99.90;;;;;;5034412;28;20043;-36
2023/03/27 07:34:55;;;;;;;6.22;1.42;;;10.80;99.90;;;;;;5034280;28;20021;-35
2023/03/27 07:37:22;;;;;;;6.47;1.40;;;10.80;99.90;;;;;;5033579;28;20051;-38
2023/03/27 07:39:50;;;;;;;7.28;1.70;;;10.80;99.90;;;;;;5033595;28;20579;-38
2023/03/27 07:42:16;;;;;;;4.68;1.20;;;10.90;99.90;;;;;;5033203;28;20033;-36
2023/03/27 07:44:41;;;;;;;7.35;1.50;;;10.90;99.90;;;;;;5033807;28;20026;-35
2023/03/27 07:47:07;;;;;;;6.00;1.50;;;10.90;99.90;;;;;;5032586;28;20025;-36
2023/03/27 07:49:33;;;;;;;5.65;1.40;;;10.90;99.90;;;;;;5034061;28;20377;-39
2023/03/27 07:51:59;;;;;;;4.65;1.20;;;10.90;99.90;;;;;;5033436;28;20060;-37
2023/03/27 07:54:25;;;;;;;8.52;2.10;;;10.90;99.90;;;;;;5033416;28;20095;-39
2023/03/27 07:56:52;;;;;;;4.22;1.20;;;10.90;99.90;;;;;;5033359;28;20399;-35
2023/03/27 07:59:19;;;;;;;5.13;1.23;;;10.90;99.90;;;;;;5033076;28;20312;-39
2023/03/27 08:01:47;;;;;;;4.55;1.10;;;11.00;99.90;;;;;;5032186;28;20033;-38
2023/03/27 08:04:14;;;;;;;7.47;1.45;;;11.00;99.90;;;;;;5032923;28;20114;-36
2023/03/27 08:06:41;;;;;;;11.52;2.08;;;11.00;99.90;;;;;;5032097;28;20036;-38
2023/03/27 08:09:07;;;;;;;10.50;1.77;;;10.90;99.90;;;;;;5033384;28;20526;-39
2023/03/27 08:11:33;;;;;;;11.75;2.40;;;10.70;99.90;;;;;;5032296;28;20029;-38
2023/03/27 08:13:59;;;;;;;11.25;1.52;;;10.60;99.90;;;;;;5032031;28;20030;-37
2023/03/27 08:16:27;;;;;;;14.90;2.25;;;10.60;99.90;;;;;;5031573;28;20365;-37
2023/03/27 08:18:53;;;;;;;6.68;1.52;;;10.60;99.90;;;;;;5031932;28;20487;-39
2023/03/27 08:21:19;;;;;;;7.65;1.42;;;10.60;99.90;;;;;;5031966;28;20083;-37
2023/03/27 08:23:46;;;;;;;9.93;1.70;;;10.70;99.90;;;;;;5031681;28;20021;-39
2023/03/27 08:26:12;;;;;;;7.30;1.55;;;10.70;99.90;;;;;;5031704;28;20013;-38
2023/03/27 08:28:38;;;;;;;8.02;1.50;;;10.70;99.90;;;;;;5031818;28;20053;-38
2023/03/27 08:31:10;;;;;;;8.27;1.40;;;10.70;99.90;;;;;;5031716;28;20037;-38
2023/03/27 08:33:37;;;;;;;6.53;1.33;;;10.70;99.90;;;;;;5031543;28;20108;-39
2023/03/27 08:36:03;;;;;;;8.77;1.67;;;10.80;99.90;;;;;;5031198;28;20068;-39
2023/03/27 08:38:32;;;;;;;4.60;1.20;;;10.80;99.90;;;;;;5031291;28;20029;-38
2023/03/27 08:40:59;;;;;;;6.43;1.48;;;10.80;99.90;;;;;;5031525;28;20023;-39
2023/03/27 08:43:32;;;;;;;7.00;1.58;;;10.80;99.90;;;;;;5031925;28;20029;-39
2023/03/27 08:46:07;;;;;;;7.38;1.70;;;10.90;99.90;;;;;;5031044;28;20021;-39
2023/03/27 08:48:36;;;;;;;7.07;1.73;;;10.90;99.90;;;;;;5031409;28;20104;-36
2023/03/27 08:51:07;;;;;;;7.90;1.63;;;11.00;99.90;;;;;;5031283;28;20091;-37
2023/03/27 08:53:43;;;;;;;6.75;1.50;;;11.00;99.90;;;;;;5031356;28;20116;-36
2023/03/27 08:56:15;;;;;;;6.35;1.50;;;11.10;99.90;;;;;;5031062;28;20100;-36
2023/03/27 08:58:42;;;;;;;5.18;1.40;;;11.10;99.90;;;;;;5030882;28;20057;-36
2023/03/27 09:01:20;;;;;;;6.82;1.45;;;11.20;99.90;;;;;;5029613;28;20029;-37
2023/03/27 09:03:50;;;;;;;13.00;1.65;;;11.20;99.90;;;;;;5031210;28;20113;-36
2023/03/27 09:06:26;;;;;;;3.97;1.00;;;11.20;99.90;;;;;;5030879;28;20434;-38
2023/03/27 09:09:22;;;;;;;6.20;1.23;;;11.20;99.90;;;;;;5032711;28;20038;-37
2023/03/27 09:12:11;;;;;;;4.45;1.33;;;11.30;99.90;;;;;;5032843;28;20100;-37
2023/03/27 09:14:42;;;;;;;5.60;1.02;;;11.30;99.90;;;;;;5028175;28;20041;-40
2023/03/27 09:17:16;;;;;;;4.00;1.05;;;11.30;99.90;;;;;;5030527;28;20029;-36
2023/03/27 09:19:44;;;;;;;5.90;1.50;;;11.30;99.90;;;;;;5030973;28;20025;-37
2023/03/27 09:22:30;;;;;;;7.70;1.20;;;11.40;99.90;;;;;;5030859;28;20097;-36
2023/03/27 09:25:01;;;;;;;6.15;1.30;;;11.40;99.90;;;;;;5031768;28;20379;-36
2023/03/27 09:27:35;;;;;;;3.85;1.25;;;11.40;99.90;;;;;;5030396;28;20104;-36
2023/03/27 09:30:09;;;;;;;3.67;1.20;;;11.40;99.90;;;;;;5030869;28;20026;-36
2023/03/27 09:32:36;;;;;;;5.07;1.23;;;11.50;99.90;;;;;;5030800;28;20025;-38
2023/03/27 09:35:03;;;;;;;4.18;1.40;;;11.50;99.90;;;;;;5030804;28;20025;-36
2023/03/27 09:37:29;;;;;;;5.82;1.38;;;11.50;99.90;;;;;;5030441;28;20083;-36
2023/03/27 09:39:59;;;;;;;5.15;1.40;;;11.50;99.90;;;;;;5030796;28;20422;-36
2023/03/27 09:42:34;;;;;;;4.20;0.80;;;11.50;99.90;;;;;;5030813;28;20100;-36
2023/03/27 09:45:05;;;;;;;5.05;1.42;;;11.60;99.90;;;;;;5030625;28;20472;-36
2023/03/27 09:47:38;;;;;;;3.75;1.27;;;11.60;99.90;;;;;;5030163;28;20045;-37
2023/03/27 09:50:33;;;;;;;3.38;0.95;;;11.60;99.90;;;;;;5030831;28;20033;-36
2023/03/27 09:53:14;;;;;;;4.32;1.30;;;11.70;99.90;;;;;;5030649;28;20025;-36
2023/03/27 09:55:55;;;;;;;3.70;1.02;;;11.70;99.90;;;;;;5030496;28;20403;-39
2023/03/27 09:58:30;;;;;;;3.92;1.38;;;11.70;99.90;;;;;;5030740;28;20021;-36
2023/03/27 10:01:29;;;;;;;3.83;1.00;;;11.70;99.90;;;;;;5031238;28;20022;-36
2023/03/27 10:03:56;;;;;;;4.78;0.93;;;11.70;99.90;;;;;;5028040;28;20034;-36
2023/03/27 10:06:36;;;;;;;4.65;1.10;;;11.80;99.90;;;;;;5030830;28;20018;-36
2023/03/27 10:09:27;;;;;;;3.95;1.02;;;11.80;99.90;;;;;;5030670;28;20021;-36
2023/03/27 10:12:06;;;;;;;8.55;1.70;;;11.80;99.90;;;;;;5033594;28;20033;-37
2023/03/27 10:14:43;;;;;;;8.07;1.95;;;11.80;99.90;;;;;;5034419;28;20025;-38
2023/03/27 10:17:32;;;;;;;8.40;1.42;;;11.50;99.90;;;;;;5034053;28;20033;-39
2023/03/27 10:20:14;;;;;;;7.57;1.50;;;11.40;99.90;;;;;;5034040;28;20503;-39
2023/03/27 10:22:42;;;;;;;4.95;1.50;;;11.30;99.90;;;;;;5034056;28;20419;-39
2023/03/27 10:25:20;;;;;;;7.32;1.85;;;11.40;99.90;;;;;;5033941;28;20032;-39
2023/03/27 10:27:46;;;;;;;6.70;1.35;;;11.40;99.90;;;;;;5034185;28;20022;-39
2023/03/27 10:30:29;;;;;;;4.28;1.20;;;11.40;99.90;;;;;;5034180;28;20112;-39
2023/03/27 10:32:55;;;;;;;8.52;1.35;;;11.30;99.90;;;;;;5034001;28;20018;-40
2023/03/27 10:35:42;;;;;;;5.38;1.60;;;11.40;99.90;;;;;;5033635;28;20640;-41
2023/03/27 10:38:14;;;;;;;3.40;1.33;;;11.40;99.90;;;;;;5033520;28;20036;-39
2023/03/27 10:40:43;;;;;;;4.80;1.20;;;11.50;99.90;;;;;;5033823;28;20018;-38
2023/03/27 10:43:38;;;;;;;7.05;1.30;;;11.50;99.90;;;;;;5033683;28;20018;-38
2023/03/27 10:46:13;;;;;;;4.90;1.13;;;11.50;99.90;;;;;;5032261;28;20560;-38
2023/03/27 10:48:51;;;;;;;7.75;1.35;;;11.50;99.90;;;;;;5034469;28;20029;-38
2023/03/27 10:51:33;;;;;;;4.93;1.23;;;11.50;99.90;;;;;;5033633;28;20028;-39
2023/03/27 10:54:29;;;;;;;3.65;1.05;;;11.50;99.90;;;;;;5033767;28;20029;-39
2023/03/27 10:57:02;;;;;;;5.85;1.30;;;11.50;99.90;;;;;;5033665;28;20047;-40
2023/03/27 10:59:37;;;;;;;4.25;0.80;;;11.50;99.90;;;;;;5034238;28;20556;-39
2023/03/27 11:02:14;;;;;;;;;;;11.50;99.90;;;;;;5033842;28;20515;-36
2023/03/27 11:04:53;;;;;;;3.28;1.17;;;11.50;99.90;;;;;;5033448;28;19963;-39
2023/03/27 11:07:27;;;;;;;6.22;1.33;;;11.50;99.90;;;;;;5033035;28;20025;-37
2023/03/27 11:10:18;;;;;;;2.80;0.80;;;11.50;99.90;;;;;;5033353;28;20521;-37
2023/03/27 11:12:55;;;;;;;2.40;0.90;;;11.50;99.90;;;;;;5033125;28;20537;-37
2023/03/27 11:15:35;;;;;;;5.10;0.75;;;11.50;99.90;;;;;;5033038;28;20373;-36
2023/03/27 11:18:27;;;;;;;4.60;1.05;;;11.60;99.90;;;;;;5032698;28;20025;-37
2023/03/27 11:21:00;;;;;;;3.30;0.82;;;11.60;99.90;;;;;;5031723;28;20018;-37
2023/03/27 11:23:49;;;;;;;4.20;1.00;;;11.60;99.90;;;;;;5032461;28;20089;-37
2023/03/27 11:26:17;;;;;;;3.60;0.82;;;11.60;99.90;;;;;;5032539;28;20495;-36
2023/03/27 11:29:04;;;;;;;4.47;0.90;;;11.60;99.90;;;;;;5033617;28;20025;-37
2023/03/27 11:31:44;;;;;;;2.85;1.00;;;11.60;99.90;;;;;;5033080;28;20029;-37
2023/03/27 11:34:39;;;;;;;2.95;0.93;;;11.70;99.90;;;;;;5032717;28;20033;-37
2023/03/27 11:37:33;;;;;;;3.85;0.95;;;11.70;99.90;;;;;;5032310;28;20033;-37
2023/03/27 11:40:12;;;;;;;4.32;0.90;;;11.70;99.90;;;;;;5022646;28;20579;-37
2023/03/27 11:42:43;;;;;;;2.47;0.80;;;11.70;99.90;;;;;;5032672;28;20088;-36
2023/03/27 11:45:15;;;;;;;3.15;0.95;;;11.70;99.90;;;;;;5032575;28;20061;-36
2023/03/27 11:48:18;;;;;;;1.70;0.70;;;11.70;99.90;;;;;;5032587;28;20411;-37
2023/03/27 11:51:07;;;;;;;2.40;0.85;;;11.70;99.90;;;;;;5033113;28;20037;-37
2023/03/27 11:53:43;;;;;;;2.35;0.70;;;11.70;99.90;;;;;;5033112;28;20475;-37
2023/03/27 11:56:22;;;;;;;2.70;0.85;;;11.80;99.90;;;;;;5031928;28;20480;-37
2023/03/27 11:58:50;;;;;;;3.42;1.23;;;11.80;99.90;;;;;;5032328;28;20025;-37
2023/03/27 12:01:26;;;;;;;4.22;0.98;;;11.80;99.90;;;;;;5032486;28;20065;-37
2023/03/27 12:04:05;;;;;;;3.63;0.98;;;11.80;99.90;;;;;;5032313;28;20030;-37
2023/03/27 12:06:54;;;;;;;2.88;0.95;;;11.80;99.90;;;;;;5031837;28;20025;-37
2023/03/27 12:09:33;;;;;;;2.60;0.55;;;11.80;99.90;;;;;;5031350;28;20025;-38
2023/03/27 12:12:08;;;;;;;2.03;0.75;;;11.80;99.90;;;;;;5032249;28;20492;-35
2023/03/27 12:15:09;;;;;;;5.10;1.00;;;11.80;99.90;;;;;;5032270;28;20030;-37
2023/03/27 12:17:41;;;;;;;4.05;0.98;;;11.90;99.90;;;;;;5031660;28;20116;-37
2023/03/27 12:20:38;;;;;;;1.98;0.80;;;11.90;99.90;;;;;;5032172;28;20482;-38
2023/03/27 12:23:27;;;;;;;2.65;0.90;;;11.80;99.90;;;;;;5032299;28;20025;-37
2023/03/27 12:25:55;;;;;;;2.13;0.70;;;11.90;99.90;;;;;;5032721;28;20051;-39
2023/03/27 12:28:59;;;;;;;1.67;0.60;;;11.90;99.90;;;;;;5031810;28;20033;-35
2023/03/27 12:31:45;;;;;;;1.90;0.68;;;11.90;99.90;;;;;;5021460;28;20045;-38
2023/03/27 12:34:33;;;;;;;2.03;0.80;;;11.90;99.90;;;;;;5031077;28;20034;-41
2023/03/27 12:37:00;;;;;;;3.17;0.75;;;11.90;99.90;;;;;;5031406;28;20044;-37
2023/03/27 12:39:26;;;;;;;2.55;0.95;;;11.90;99.90;;;;;;5031846;28;20075;-38
2023/03/27 12:41:52;;;;;;;3.15;0.70;;;11.90;99.90;;;;;;5031925;28;20302;-37
2023/03/27 12:44:26;;;;;;;3.65;0.90;;;11.90;99.90;;;;;;5032540;28;20033;-36
2023/03/27 12:47:05;;;;;;;;;;;11.90;99.90;;;;;;5033172;28;20042;-36
2023/03/27 12:49:45;;;;;;;2.40;0.80;;;11.90;99.90;;;;;;5032561;28;20395;-36
2023/03/27 12:52:11;;;;;;;3.65;1.00;;;11.90;99.90;;;;;;5030520;28;20025;-38
2023/03/27 12:54:38;;;;;;;1.98;0.80;;;11.90;99.90;;;;;;5031451;28;20368;-38
2023/03/27 12:57:04;;;;;;;2.13;0.70;;;11.90;99.90;;;;;;5032536;28;20071;-39
2023/03/27 12:59:34;;;;;;;7.88;1.75;;;11.90;99.90;;;;;;5032092;28;20108;-36
2023/03/27 13:02:02;;;;;;;5.28;1.80;;;11.80;99.90;;;;;;5031985;28;20120;-39
2023/03/27 13:04:50;;;;;;;7.57;1.80;;;11.80;99.90;;;;;;5032666;28;20025;-40
2023/03/27 13:07:34;;;;;;;8.38;1.55;;;11.70;99.90;;;;;;5032175;28;20025;-38
2023/03/27 13:10:23;;;;;;;5.30;1.38;;;11.70;99.90;;;;;;5031602;28;20036;-41
2023/03/27 13:12:49;;;;;;;5.88;1.65;;;11.70;99.90;;;;;;5032062;28;20033;-38
2023/03/27 13:15:46;;;;;;;3.35;1.30;;;11.70;99.90;;;;;;5031741;28;20026;-38